sensor_id;sensor_type;location;lat;lon;timestamp;P1;durP1;ratioP1;P2;durP2;ratioP2
15295;SDS011;7749;49.964;7.890;2023-04-16T00:01:39;17.13;;;13.67;;
15295;SDS011;7749;49.964;7.890;2023-04-16T00:04:07;14.57;;;13.17;;
15295;SDS011;7749;49.964;7.890;2023-04-16T00:06:35;15.57;;;14.03;;
15295;SDS011;7749;49.964;7.890;2023-04-16T00:09:03;15.80;;;14.20;;
15295;SDS011;7749;49.964;7.890;2023-04-16T00:11:30;16.60;;;15.00;;
15295;SDS011;7749;49.964;7.890;2023-04-16T00:14:03;17.93;;;16.17;;
15295;SDS011;7749;49.964;7.890;2023-04-16T00:16:31;16.87;;;15.17;;
15295;SDS011;7749;49.964;7.890;2023-04-16T00:18:59;17.47;;;15.70;;
15295;SDS011;7749;49.964;7.890;2023-04-16T00:21:26;17.83;;;16.03;;
15295;SDS011;7749;49.964;7.890;2023-04-16T00:23:54;16.07;;;14.33;;
15295;SDS011;7749;49.964;7.890;2023-04-16T00:26:22;18.47;;;15.83;;
15295;SDS011;7749;49.964;7.890;2023-04-16T00:28:49;17.57;;;15.80;;
15295;SDS011;7749;49.964;7.890;2023-04-16T00:31:17;17.27;;;15.50;;
15295;SDS011;7749;49.964;7.890;2023-04-16T00:33:52;16.97;;;15.27;;
15295;SDS011;7749;49.964;7.890;2023-04-16T00:36:19;17.60;;;15.80;;
15295;SDS011;7749;49.964;7.890;2023-04-16T00:38:47;17.97;;;15.97;;
15295;SDS011;7749;49.964;7.890;2023-04-16T00:41:15;18.33;;;16.43;;
15295;SDS011;7749;49.964;7.890;2023-04-16T00:43:42;18.30;;;16.23;;
15295;SDS011;7749;49.964;7.890;2023-04-16T00:46:13;18.97;;;16.87;;
15295;SDS011;7749;49.964;7.890;2023-04-16T00:48:43;20.00;;;17.20;;
15295;SDS011;7749;49.964;7.890;2023-04-16T00:51:14;19.30;;;17.30;;
15295;SDS011;7749;49.964;7.890;2023-04-16T00:53:42;19.47;;;17.47;;
15295;SDS011;7749;49.964;7.890;2023-04-16T00:56:11;21.17;;;18.20;;
15295;SDS011;7749;49.964;7.890;2023-04-16T00:58:39;18.80;;;16.47;;
15295;SDS011;7749;49.964;7.890;2023-04-16T01:01:07;19.20;;;17.20;;
15295;SDS011;7749;49.964;7.890;2023-04-16T01:06:07;20.63;;;18.43;;
15295;SDS011;7749;49.964;7.890;2023-04-16T01:08:35;22.53;;;18.20;;
15295;SDS011;7749;49.964;7.890;2023-04-16T01:11:06;20.17;;;17.97;;
15295;SDS011;7749;49.964;7.890;2023-04-16T01:13:37;20.10;;;18.03;;
15295;SDS011;7749;49.964;7.890;2023-04-16T01:16:06;21.10;;;18.80;;
15295;SDS011;7749;49.964;7.890;2023-04-16T01:18:38;20.53;;;18.37;;
15295;SDS011;7749;49.964;7.890;2023-04-16T01:21:06;20.07;;;17.97;;
15295;SDS011;7749;49.964;7.890;2023-04-16T01:23:34;20.17;;;17.87;;
15295;SDS011;7749;49.964;7.890;2023-04-16T01:26:01;20.50;;;18.13;;
15295;SDS011;7749;49.964;7.890;2023-04-16T01:28:29;21.13;;;18.83;;
15295;SDS011;7749;49.964;7.890;2023-04-16T01:30:57;19.27;;;17.17;;
15295;SDS011;7749;49.964;7.890;2023-04-16T01:33:25;19.57;;;17.40;;
15295;SDS011;7749;49.964;7.890;2023-04-16T01:35:52;20.83;;;18.63;;
15295;SDS011;7749;49.964;7.890;2023-04-16T01:38:20;21.07;;;18.67;;
15295;SDS011;7749;49.964;7.890;2023-04-16T01:40:48;22.50;;;18.63;;
15295;SDS011;7749;49.964;7.890;2023-04-16T01:43:16;21.87;;;17.00;;
15295;SDS011;7749;49.964;7.890;2023-04-16T01:45:45;22.63;;;19.13;;
15295;SDS011;7749;49.964;7.890;2023-04-16T01:48:13;22.10;;;19.20;;
15295;SDS011;7749;49.964;7.890;2023-04-16T01:50:40;22.60;;;20.20;;
15295;SDS011;7749;49.964;7.890;2023-04-16T01:53:08;22.00;;;19.60;;
15295;SDS011;7749;49.964;7.890;2023-04-16T01:55:36;25.23;;;19.53;;
15295;SDS011;7749;49.964;7.890;2023-04-16T01:58:03;23.13;;;18.67;;
15295;SDS011;7749;49.964;7.890;2023-04-16T02:00:36;24.17;;;20.00;;
15295;SDS011;7749;49.964;7.890;2023-04-16T02:03:03;24.10;;;20.77;;
15295;SDS011;7749;49.964;7.890;2023-04-16T02:05:31;22.87;;;19.30;;
15295;SDS011;7749;49.964;7.890;2023-04-16T02:08:02;25.97;;;19.80;;
15295;SDS011;7749;49.964;7.890;2023-04-16T02:10:29;24.30;;;19.47;;
15295;SDS011;7749;49.964;7.890;2023-04-16T02:12:57;24.80;;;19.53;;
15295;SDS011;7749;49.964;7.890;2023-04-16T02:15:24;22.87;;;19.47;;
15295;SDS011;7749;49.964;7.890;2023-04-16T02:17:52;22.43;;;19.13;;
15295;SDS011;7749;49.964;7.890;2023-04-16T02:20:22;22.60;;;19.63;;
15295;SDS011;7749;49.964;7.890;2023-04-16T02:22:50;22.83;;;18.37;;
15295;SDS011;7749;49.964;7.890;2023-04-16T02:25:18;23.73;;;18.93;;
15295;SDS011;7749;49.964;7.890;2023-04-16T02:27:45;19.50;;;16.97;;
15295;SDS011;7749;49.964;7.890;2023-04-16T02:30:13;22.97;;;17.80;;
15295;SDS011;7749;49.964;7.890;2023-04-16T02:32:40;21.30;;;16.33;;
15295;SDS011;7749;49.964;7.890;2023-04-16T02:35:08;21.57;;;16.63;;
15295;SDS011;7749;49.964;7.890;2023-04-16T02:37:36;22.67;;;16.87;;
15295;SDS011;7749;49.964;7.890;2023-04-16T02:40:03;21.33;;;16.90;;
15295;SDS011;7749;49.964;7.890;2023-04-16T02:42:31;24.10;;;18.07;;
15295;SDS011;7749;49.964;7.890;2023-04-16T02:44:59;20.83;;;15.97;;
15295;SDS011;7749;49.964;7.890;2023-04-16T02:47:29;19.47;;;15.57;;
15295;SDS011;7749;49.964;7.890;2023-04-16T02:49:57;20.10;;;15.80;;
15295;SDS011;7749;49.964;7.890;2023-04-16T02:52:24;21.57;;;15.03;;
15295;SDS011;7749;49.964;7.890;2023-04-16T02:54:52;21.13;;;16.07;;
15295;SDS011;7749;49.964;7.890;2023-04-16T02:57:20;21.43;;;15.10;;
15295;SDS011;7749;49.964;7.890;2023-04-16T02:59:50;17.37;;;14.23;;
15295;SDS011;7749;49.964;7.890;2023-04-16T03:02:20;19.13;;;14.77;;
15295;SDS011;7749;49.964;7.890;2023-04-16T03:04:48;17.87;;;15.07;;
15295;SDS011;7749;49.964;7.890;2023-04-16T03:07:16;18.57;;;14.50;;
15295;SDS011;7749;49.964;7.890;2023-04-16T03:09:44;16.63;;;13.93;;
15295;SDS011;7749;49.964;7.890;2023-04-16T03:12:12;18.43;;;14.10;;
15295;SDS011;7749;49.964;7.890;2023-04-16T03:14:39;18.43;;;14.83;;
15295;SDS011;7749;49.964;7.890;2023-04-16T03:17:07;20.97;;;14.37;;
15295;SDS011;7749;49.964;7.890;2023-04-16T03:19:34;19.90;;;14.33;;
15295;SDS011;7749;49.964;7.890;2023-04-16T03:22:03;18.67;;;14.70;;
15295;SDS011;7749;49.964;7.890;2023-04-16T03:24:31;18.80;;;15.00;;
15295;SDS011;7749;49.964;7.890;2023-04-16T03:26:58;20.53;;;15.20;;
15295;SDS011;7749;49.964;7.890;2023-04-16T03:29:27;21.83;;;14.90;;
15295;SDS011;7749;49.964;7.890;2023-04-16T03:31:55;17.90;;;14.60;;
15295;SDS011;7749;49.964;7.890;2023-04-16T03:34:23;17.17;;;14.97;;
15295;SDS011;7749;49.964;7.890;2023-04-16T03:36:51;18.40;;;14.07;;
15295;SDS011;7749;49.964;7.890;2023-04-16T03:39:18;18.73;;;14.00;;
15295;SDS011;7749;49.964;7.890;2023-04-16T03:41:46;18.60;;;13.70;;
15295;SDS011;7749;49.964;7.890;2023-04-16T03:44:14;19.37;;;14.07;;
15295;SDS011;7749;49.964;7.890;2023-04-16T03:46:41;18.87;;;14.53;;
15295;SDS011;7749;49.964;7.890;2023-04-16T03:49:09;21.37;;;14.67;;
15295;SDS011;7749;49.964;7.890;2023-04-16T03:51:40;16.70;;;13.53;;
15295;SDS011;7749;49.964;7.890;2023-04-16T03:54:07;16.83;;;13.37;;
15295;SDS011;7749;49.964;7.890;2023-04-16T03:56:35;18.13;;;13.73;;
15295;SDS011;7749;49.964;7.890;2023-04-16T03:59:03;18.53;;;13.97;;
15295;SDS011;7749;49.964;7.890;2023-04-16T04:01:33;17.40;;;13.83;;
15295;SDS011;7749;49.964;7.890;2023-04-16T04:04:03;18.83;;;14.20;;
15295;SDS011;7749;49.964;7.890;2023-04-16T04:06:31;17.43;;;14.37;;
15295;SDS011;7749;49.964;7.890;2023-04-16T04:08:59;19.03;;;14.57;;
15295;SDS011;7749;49.964;7.890;2023-04-16T04:11:29;18.43;;;14.67;;
15295;SDS011;7749;49.964;7.890;2023-04-16T04:13:57;17.80;;;14.17;;
15295;SDS011;7749;49.964;7.890;2023-04-16T04:16:24;20.37;;;14.87;;
15295;SDS011;7749;49.964;7.890;2023-04-16T04:18:52;20.30;;;14.97;;
15295;SDS011;7749;49.964;7.890;2023-04-16T04:21:23;17.70;;;14.07;;
15295;SDS011;7749;49.964;7.890;2023-04-16T04:23:54;21.33;;;15.07;;
15295;SDS011;7749;49.964;7.890;2023-04-16T04:26:22;22.30;;;14.03;;
15295;SDS011;7749;49.964;7.890;2023-04-16T04:28:50;18.77;;;14.07;;
15295;SDS011;7749;49.964;7.890;2023-04-16T04:31:21;18.87;;;13.87;;
15295;SDS011;7749;49.964;7.890;2023-04-16T04:33:48;20.13;;;15.63;;
15295;SDS011;7749;49.964;7.890;2023-04-16T04:36:16;21.60;;;15.13;;
15295;SDS011;7749;49.964;7.890;2023-04-16T04:38:44;22.40;;;16.40;;
15295;SDS011;7749;49.964;7.890;2023-04-16T04:41:11;19.17;;;14.77;;
15295;SDS011;7749;49.964;7.890;2023-04-16T04:43:39;23.30;;;15.80;;
15295;SDS011;7749;49.964;7.890;2023-04-16T04:46:06;23.80;;;15.90;;
15295;SDS011;7749;49.964;7.890;2023-04-16T04:48:34;23.23;;;15.77;;
15295;SDS011;7749;49.964;7.890;2023-04-16T04:51:02;23.87;;;16.93;;
15295;SDS011;7749;49.964;7.890;2023-04-16T04:53:31;26.73;;;17.40;;
15295;SDS011;7749;49.964;7.890;2023-04-16T04:55:59;25.70;;;18.90;;
15295;SDS011;7749;49.964;7.890;2023-04-16T04:58:39;25.20;;;17.33;;
15295;SDS011;7749;49.964;7.890;2023-04-16T05:01:07;23.90;;;16.93;;
15295;SDS011;7749;49.964;7.890;2023-04-16T05:03:35;25.30;;;18.03;;
15295;SDS011;7749;49.964;7.890;2023-04-16T05:06:03;26.87;;;18.63;;
15295;SDS011;7749;49.964;7.890;2023-04-16T05:08:33;23.40;;;17.27;;
15295;SDS011;7749;49.964;7.890;2023-04-16T05:11:00;23.57;;;17.77;;
15295;SDS011;7749;49.964;7.890;2023-04-16T05:13:28;26.03;;;18.03;;
15295;SDS011;7749;49.964;7.890;2023-04-16T05:15:57;25.87;;;16.90;;
15295;SDS011;7749;49.964;7.890;2023-04-16T05:18:25;23.83;;;17.27;;
15295;SDS011;7749;49.964;7.890;2023-04-16T05:20:53;22.20;;;16.97;;
15295;SDS011;7749;49.964;7.890;2023-04-16T05:23:21;25.90;;;16.90;;
15295;SDS011;7749;49.964;7.890;2023-04-16T05:25:49;22.57;;;16.87;;
15295;SDS011;7749;49.964;7.890;2023-04-16T05:28:17;24.17;;;17.10;;
15295;SDS011;7749;49.964;7.890;2023-04-16T05:30:44;22.23;;;15.77;;
15295;SDS011;7749;49.964;7.890;2023-04-16T05:33:12;21.93;;;15.70;;
15295;SDS011;7749;49.964;7.890;2023-04-16T05:35:40;24.57;;;17.07;;
15295;SDS011;7749;49.964;7.890;2023-04-16T05:38:07;22.47;;;15.97;;
15295;SDS011;7749;49.964;7.890;2023-04-16T05:40:35;22.10;;;15.93;;
15295;SDS011;7749;49.964;7.890;2023-04-16T05:43:02;20.37;;;15.63;;
15295;SDS011;7749;49.964;7.890;2023-04-16T05:45:30;22.83;;;16.83;;
15295;SDS011;7749;49.964;7.890;2023-04-16T05:47:59;22.10;;;16.23;;
15295;SDS011;7749;49.964;7.890;2023-04-16T05:50:27;20.50;;;15.53;;
15295;SDS011;7749;49.964;7.890;2023-04-16T05:52:54;20.20;;;15.23;;
15295;SDS011;7749;49.964;7.890;2023-04-16T05:55:22;21.50;;;16.27;;
15295;SDS011;7749;49.964;7.890;2023-04-16T05:57:49;20.77;;;15.77;;
15295;SDS011;7749;49.964;7.890;2023-04-16T06:00:17;21.37;;;15.20;;
15295;SDS011;7749;49.964;7.890;2023-04-16T06:02:45;21.60;;;16.33;;
15295;SDS011;7749;49.964;7.890;2023-04-16T06:05:12;21.83;;;14.43;;
15295;SDS011;7749;49.964;7.890;2023-04-16T06:07:40;23.30;;;14.93;;
15295;SDS011;7749;49.964;7.890;2023-04-16T06:10:08;19.13;;;14.77;;
15295;SDS011;7749;49.964;7.890;2023-04-16T06:12:36;19.93;;;14.73;;
15295;SDS011;7749;49.964;7.890;2023-04-16T06:15:04;19.13;;;13.97;;
15295;SDS011;7749;49.964;7.890;2023-04-16T06:17:32;16.60;;;13.00;;
15295;SDS011;7749;49.964;7.890;2023-04-16T06:20:00;15.37;;;11.90;;
15295;SDS011;7749;49.964;7.890;2023-04-16T06:22:27;14.47;;;11.23;;
15295;SDS011;7749;49.964;7.890;2023-04-16T06:24:57;12.83;;;11.00;;
15295;SDS011;7749;49.964;7.890;2023-04-16T06:27:27;13.80;;;10.63;;
15295;SDS011;7749;49.964;7.890;2023-04-16T06:29:56;13.93;;;9.43;;
15295;SDS011;7749;49.964;7.890;2023-04-16T06:32:24;12.30;;;8.83;;
15295;SDS011;7749;49.964;7.890;2023-04-16T06:34:52;12.13;;;8.87;;
15295;SDS011;7749;49.964;7.890;2023-04-16T06:37:19;12.77;;;9.33;;
15295;SDS011;7749;49.964;7.890;2023-04-16T06:39:47;12.50;;;9.07;;
15295;SDS011;7749;49.964;7.890;2023-04-16T06:42:14;12.13;;;9.17;;
15295;SDS011;7749;49.964;7.890;2023-04-16T06:44:42;11.33;;;8.83;;
15295;SDS011;7749;49.964;7.890;2023-04-16T06:47:10;13.27;;;9.87;;
15295;SDS011;7749;49.964;7.890;2023-04-16T06:49:38;14.97;;;10.70;;
15295;SDS011;7749;49.964;7.890;2023-04-16T06:52:06;14.47;;;11.50;;
15295;SDS011;7749;49.964;7.890;2023-04-16T06:54:34;15.63;;;12.33;;
15295;SDS011;7749;49.964;7.890;2023-04-16T06:57:02;16.33;;;12.13;;
15295;SDS011;7749;49.964;7.890;2023-04-16T06:59:30;17.47;;;12.67;;
15295;SDS011;7749;49.964;7.890;2023-04-16T07:01:57;18.37;;;13.30;;
15295;SDS011;7749;49.964;7.890;2023-04-16T07:04:25;16.90;;;13.57;;
15295;SDS011;7749;49.964;7.890;2023-04-16T07:06:53;20.20;;;15.23;;
15295;SDS011;7749;49.964;7.890;2023-04-16T07:09:20;21.50;;;13.90;;
15295;SDS011;7749;49.964;7.890;2023-04-16T07:11:48;18.63;;;13.83;;
15295;SDS011;7749;49.964;7.890;2023-04-16T07:14:15;19.30;;;14.27;;
15295;SDS011;7749;49.964;7.890;2023-04-16T07:16:43;19.90;;;14.07;;
15295;SDS011;7749;49.964;7.890;2023-04-16T07:19:11;21.00;;;15.03;;
15295;SDS011;7749;49.964;7.890;2023-04-16T07:21:38;22.10;;;15.80;;
15295;SDS011;7749;49.964;7.890;2023-04-16T07:24:08;21.50;;;14.97;;
15295;SDS011;7749;49.964;7.890;2023-04-16T07:26:37;19.93;;;15.20;;
15295;SDS011;7749;49.964;7.890;2023-04-16T07:29:05;21.00;;;15.10;;
15295;SDS011;7749;49.964;7.890;2023-04-16T07:31:33;20.30;;;14.70;;
15295;SDS011;7749;49.964;7.890;2023-04-16T07:34:00;22.00;;;15.53;;
15295;SDS011;7749;49.964;7.890;2023-04-16T07:36:28;21.83;;;15.77;;
15295;SDS011;7749;49.964;7.890;2023-04-16T07:38:56;18.50;;;14.30;;
15295;SDS011;7749;49.964;7.890;2023-04-16T07:41:23;18.20;;;13.70;;
15295;SDS011;7749;49.964;7.890;2023-04-16T07:43:52;18.10;;;13.90;;
15295;SDS011;7749;49.964;7.890;2023-04-16T07:46:20;18.13;;;14.00;;
15295;SDS011;7749;49.964;7.890;2023-04-16T07:48:48;19.40;;;13.43;;
15295;SDS011;7749;49.964;7.890;2023-04-16T07:51:15;18.20;;;14.40;;
15295;SDS011;7749;49.964;7.890;2023-04-16T07:53:44;19.60;;;14.37;;
15295;SDS011;7749;49.964;7.890;2023-04-16T07:56:11;17.60;;;13.20;;
15295;SDS011;7749;49.964;7.890;2023-04-16T07:58:39;18.67;;;14.13;;
15295;SDS011;7749;49.964;7.890;2023-04-16T08:01:06;18.67;;;14.50;;
15295;SDS011;7749;49.964;7.890;2023-04-16T08:03:34;18.97;;;14.23;;
15295;SDS011;7749;49.964;7.890;2023-04-16T08:06:02;19.57;;;14.30;;
15295;SDS011;7749;49.964;7.890;2023-04-16T08:08:30;18.00;;;14.23;;
15295;SDS011;7749;49.964;7.890;2023-04-16T08:10:57;20.23;;;15.23;;
15295;SDS011;7749;49.964;7.890;2023-04-16T08:13:26;21.03;;;15.17;;
15295;SDS011;7749;49.964;7.890;2023-04-16T08:15:53;21.17;;;16.10;;
15295;SDS011;7749;49.964;7.890;2023-04-16T08:18:21;20.43;;;15.13;;
15295;SDS011;7749;49.964;7.890;2023-04-16T08:20:51;21.27;;;16.63;;
15295;SDS011;7749;49.964;7.890;2023-04-16T08:23:19;20.00;;;14.97;;
15295;SDS011;7749;49.964;7.890;2023-04-16T08:25:50;23.53;;;16.37;;
15295;SDS011;7749;49.964;7.890;2023-04-16T08:28:19;21.70;;;15.80;;
15295;SDS011;7749;49.964;7.890;2023-04-16T08:30:46;23.77;;;15.73;;
15295;SDS011;7749;49.964;7.890;2023-04-16T08:33:14;22.63;;;17.17;;
15295;SDS011;7749;49.964;7.890;2023-04-16T08:35:42;21.03;;;16.03;;
15295;SDS011;7749;49.964;7.890;2023-04-16T08:38:09;23.10;;;17.13;;
15295;SDS011;7749;49.964;7.890;2023-04-16T08:40:37;21.03;;;15.77;;
15295;SDS011;7749;49.964;7.890;2023-04-16T08:43:11;21.13;;;16.10;;
15295;SDS011;7749;49.964;7.890;2023-04-16T08:45:40;22.17;;;16.17;;
15295;SDS011;7749;49.964;7.890;2023-04-16T08:48:10;20.23;;;15.90;;
15295;SDS011;7749;49.964;7.890;2023-04-16T08:50:38;24.37;;;15.57;;
15295;SDS011;7749;49.964;7.890;2023-04-16T08:53:07;19.00;;;14.97;;
15295;SDS011;7749;49.964;7.890;2023-04-16T08:55:39;20.30;;;15.20;;
15295;SDS011;7749;49.964;7.890;2023-04-16T08:58:12;19.33;;;14.87;;
15295;SDS011;7749;49.964;7.890;2023-04-16T09:00:49;21.77;;;15.80;;
15295;SDS011;7749;49.964;7.890;2023-04-16T09:03:17;22.13;;;15.57;;
15295;SDS011;7749;49.964;7.890;2023-04-16T09:05:48;23.60;;;17.03;;
15295;SDS011;7749;49.964;7.890;2023-04-16T09:08:17;20.47;;;15.90;;
15295;SDS011;7749;49.964;7.890;2023-04-16T09:10:44;20.73;;;16.37;;
15295;SDS011;7749;49.964;7.890;2023-04-16T09:13:12;22.97;;;15.57;;
15295;SDS011;7749;49.964;7.890;2023-04-16T09:15:42;21.77;;;17.50;;
15295;SDS011;7749;49.964;7.890;2023-04-16T09:18:10;25.07;;;17.30;;
15295;SDS011;7749;49.964;7.890;2023-04-16T09:20:38;26.33;;;18.00;;
15295;SDS011;7749;49.964;7.890;2023-04-16T09:23:06;21.30;;;15.77;;
15295;SDS011;7749;49.964;7.890;2023-04-16T09:25:35;23.73;;;18.10;;
15295;SDS011;7749;49.964;7.890;2023-04-16T09:28:03;23.63;;;17.13;;
15295;SDS011;7749;49.964;7.890;2023-04-16T09:30:31;23.67;;;16.87;;
15295;SDS011;7749;49.964;7.890;2023-04-16T09:36:01;26.80;;;17.27;;
15295;SDS011;7749;49.964;7.890;2023-04-16T09:41:16;22.60;;;16.47;;
15295;SDS011;7749;49.964;7.890;2023-04-16T09:43:53;24.30;;;17.30;;
15295;SDS011;7749;49.964;7.890;2023-04-16T09:46:24;21.03;;;17.40;;
15295;SDS011;7749;49.964;7.890;2023-04-16T09:49:04;21.23;;;17.33;;
15295;SDS011;7749;49.964;7.890;2023-04-16T09:51:44;23.47;;;16.80;;
15295;SDS011;7749;49.964;7.890;2023-04-16T09:54:18;22.87;;;16.83;;
15295;SDS011;7749;49.964;7.890;2023-04-16T09:56:46;22.83;;;17.63;;
15295;SDS011;7749;49.964;7.890;2023-04-16T09:59:17;27.43;;;20.10;;
15295;SDS011;7749;49.964;7.890;2023-04-16T10:01:46;25.00;;;18.77;;
15295;SDS011;7749;49.964;7.890;2023-04-16T10:04:16;26.40;;;18.03;;
15295;SDS011;7749;49.964;7.890;2023-04-16T10:06:43;25.40;;;19.70;;
15295;SDS011;7749;49.964;7.890;2023-04-16T10:09:14;22.70;;;17.20;;
15295;SDS011;7749;49.964;7.890;2023-04-16T10:11:42;24.10;;;18.00;;
15295;SDS011;7749;49.964;7.890;2023-04-16T10:14:10;25.33;;;18.67;;
15295;SDS011;7749;49.964;7.890;2023-04-16T10:16:37;25.23;;;18.53;;
15295;SDS011;7749;49.964;7.890;2023-04-16T10:19:07;24.03;;;17.37;;
15295;SDS011;7749;49.964;7.890;2023-04-16T10:21:35;23.10;;;16.63;;
15295;SDS011;7749;49.964;7.890;2023-04-16T10:24:03;25.57;;;17.50;;
15295;SDS011;7749;49.964;7.890;2023-04-16T10:26:31;24.33;;;17.50;;
15295;SDS011;7749;49.964;7.890;2023-04-16T10:28:59;23.03;;;17.83;;
15295;SDS011;7749;49.964;7.890;2023-04-16T10:31:28;27.40;;;19.20;;
15295;SDS011;7749;49.964;7.890;2023-04-16T10:33:59;26.73;;;18.60;;
15295;SDS011;7749;49.964;7.890;2023-04-16T10:36:29;26.77;;;18.80;;
15295;SDS011;7749;49.964;7.890;2023-04-16T10:38:57;23.90;;;17.73;;
15295;SDS011;7749;49.964;7.890;2023-04-16T10:41:26;24.00;;;17.93;;
15295;SDS011;7749;49.964;7.890;2023-04-16T10:44:02;24.37;;;18.50;;
15295;SDS011;7749;49.964;7.890;2023-04-16T10:46:33;24.80;;;17.83;;
15295;SDS011;7749;49.964;7.890;2023-04-16T10:49:17;24.20;;;17.10;;
15295;SDS011;7749;49.964;7.890;2023-04-16T10:51:59;23.83;;;17.70;;
15295;SDS011;7749;49.964;7.890;2023-04-16T10:54:37;24.47;;;17.73;;
15295;SDS011;7749;49.964;7.890;2023-04-16T10:57:06;24.40;;;17.47;;
15295;SDS011;7749;49.964;7.890;2023-04-16T10:59:41;23.87;;;17.87;;
15295;SDS011;7749;49.964;7.890;2023-04-16T11:02:14;24.17;;;17.93;;
15295;SDS011;7749;49.964;7.890;2023-04-16T11:04:44;25.65;;;19.33;;
15295;SDS011;7749;49.964;7.890;2023-04-16T11:12:13;26.20;;;18.13;;
15295;SDS011;7749;49.964;7.890;2023-04-16T11:14:44;26.13;;;19.73;;
15295;SDS011;7749;49.964;7.890;2023-04-16T11:17:14;24.93;;;18.67;;
15295;SDS011;7749;49.964;7.890;2023-04-16T11:19:42;25.07;;;18.37;;
15295;SDS011;7749;49.964;7.890;2023-04-16T11:22:13;25.50;;;19.03;;
15295;SDS011;7749;49.964;7.890;2023-04-16T11:24:43;24.57;;;17.90;;
15295;SDS011;7749;49.964;7.890;2023-04-16T11:27:13;23.30;;;18.77;;
15295;SDS011;7749;49.964;7.890;2023-04-16T11:29:41;22.97;;;19.00;;
15295;SDS011;7749;49.964;7.890;2023-04-16T11:32:19;25.60;;;19.53;;
15295;SDS011;7749;49.964;7.890;2023-04-16T11:34:48;23.80;;;19.03;;
15295;SDS011;7749;49.964;7.890;2023-04-16T11:37:34;25.13;;;18.90;;
15295;SDS011;7749;49.964;7.890;2023-04-16T11:40:03;24.83;;;19.67;;
15295;SDS011;7749;49.964;7.890;2023-04-16T11:42:39;25.73;;;20.23;;
15295;SDS011;7749;49.964;7.890;2023-04-16T11:45:08;24.90;;;20.70;;
15295;SDS011;7749;49.964;7.890;2023-04-16T11:52:50;25.90;;;21.37;;
15295;SDS011;7749;49.964;7.890;2023-04-16T11:55:22;23.93;;;19.37;;
15295;SDS011;7749;49.964;7.890;2023-04-16T11:57:50;27.40;;;20.00;;
15295;SDS011;7749;49.964;7.890;2023-04-16T12:00:18;26.47;;;20.80;;
15295;SDS011;7749;49.964;7.890;2023-04-16T12:02:51;27.00;;;21.13;;
15295;SDS011;7749;49.964;7.890;2023-04-16T12:05:36;27.30;;;20.73;;
15295;SDS011;7749;49.964;7.890;2023-04-16T12:08:09;25.73;;;19.90;;
15295;SDS011;7749;49.964;7.890;2023-04-16T12:10:54;29.07;;;20.93;;
15295;SDS011;7749;49.964;7.890;2023-04-16T12:13:22;27.50;;;21.10;;
15295;SDS011;7749;49.964;7.890;2023-04-16T12:15:53;27.20;;;20.33;;
15295;SDS011;7749;49.964;7.890;2023-04-16T12:18:23;23.83;;;19.73;;
15295;SDS011;7749;49.964;7.890;2023-04-16T12:20:55;24.77;;;20.03;;
15295;SDS011;7749;49.964;7.890;2023-04-16T12:25:50;25.57;;;20.40;;
15295;SDS011;7749;49.964;7.890;2023-04-16T12:28:31;26.20;;;20.43;;
15295;SDS011;7749;49.964;7.890;2023-04-16T12:31:03;23.97;;;19.47;;
15295;SDS011;7749;49.964;7.890;2023-04-16T12:33:31;24.20;;;19.13;;
15295;SDS011;7749;49.964;7.890;2023-04-16T12:35:59;23.90;;;19.60;;
15295;SDS011;7749;49.964;7.890;2023-04-16T12:38:28;25.53;;;19.13;;
15295;SDS011;7749;49.964;7.890;2023-04-16T12:40:55;26.27;;;23.57;;
15295;SDS011;7749;49.964;7.890;2023-04-16T12:43:24;29.90;;;23.97;;
15295;SDS011;7749;49.964;7.890;2023-04-16T12:45:52;29.90;;;24.30;;
15295;SDS011;7749;49.964;7.890;2023-04-16T12:48:20;23.83;;;19.10;;
15295;SDS011;7749;49.964;7.890;2023-04-16T12:50:48;23.70;;;19.03;;
15295;SDS011;7749;49.964;7.890;2023-04-16T12:53:16;22.43;;;18.10;;
15295;SDS011;7749;49.964;7.890;2023-04-16T12:55:43;25.53;;;19.40;;
15295;SDS011;7749;49.964;7.890;2023-04-16T12:58:11;22.43;;;18.93;;
15295;SDS011;7749;49.964;7.890;2023-04-16T13:00:39;23.43;;;18.90;;
15295;SDS011;7749;49.964;7.890;2023-04-16T13:03:06;24.50;;;19.83;;
15295;SDS011;7749;49.964;7.890;2023-04-16T13:05:34;22.80;;;18.53;;
15295;SDS011;7749;49.964;7.890;2023-04-16T13:08:03;22.43;;;18.13;;
15295;SDS011;7749;49.964;7.890;2023-04-16T13:10:31;23.37;;;19.23;;
15295;SDS011;7749;49.964;7.890;2023-04-16T13:12:58;20.23;;;17.83;;
15295;SDS011;7749;49.964;7.890;2023-04-16T13:15:29;22.43;;;19.17;;
15295;SDS011;7749;49.964;7.890;2023-04-16T13:17:57;20.00;;;17.77;;
15295;SDS011;7749;49.964;7.890;2023-04-16T13:20:24;20.20;;;17.67;;
15295;SDS011;7749;49.964;7.890;2023-04-16T13:22:52;19.47;;;17.37;;
15295;SDS011;7749;49.964;7.890;2023-04-16T13:25:20;21.00;;;17.50;;
15295;SDS011;7749;49.964;7.890;2023-04-16T13:27:47;19.80;;;16.83;;
15295;SDS011;7749;49.964;7.890;2023-04-16T13:30:15;20.93;;;17.03;;
15295;SDS011;7749;49.964;7.890;2023-04-16T13:32:43;22.50;;;18.30;;
15295;SDS011;7749;49.964;7.890;2023-04-16T13:35:10;19.37;;;17.00;;
15295;SDS011;7749;49.964;7.890;2023-04-16T13:37:38;21.67;;;18.07;;
15295;SDS011;7749;49.964;7.890;2023-04-16T13:40:06;24.30;;;18.63;;
15295;SDS011;7749;49.964;7.890;2023-04-16T13:42:34;22.83;;;17.57;;
15295;SDS011;7749;49.964;7.890;2023-04-16T13:45:02;20.10;;;16.60;;
15295;SDS011;7749;49.964;7.890;2023-04-16T13:47:30;20.73;;;17.00;;
15295;SDS011;7749;49.964;7.890;2023-04-16T13:49:58;19.93;;;17.33;;
15295;SDS011;7749;49.964;7.890;2023-04-16T13:52:25;20.53;;;17.17;;
15295;SDS011;7749;49.964;7.890;2023-04-16T13:54:53;21.50;;;16.93;;
15295;SDS011;7749;49.964;7.890;2023-04-16T13:57:21;19.43;;;17.23;;
15295;SDS011;7749;49.964;7.890;2023-04-16T13:59:48;20.43;;;16.47;;
15295;SDS011;7749;49.964;7.890;2023-04-16T14:02:16;21.77;;;17.53;;
15295;SDS011;7749;49.964;7.890;2023-04-16T14:04:44;22.10;;;18.10;;
15295;SDS011;7749;49.964;7.890;2023-04-16T14:07:12;19.97;;;15.77;;
15295;SDS011;7749;49.964;7.890;2023-04-16T14:09:40;21.03;;;18.00;;
15295;SDS011;7749;49.964;7.890;2023-04-16T14:12:08;21.60;;;17.90;;
15295;SDS011;7749;49.964;7.890;2023-04-16T14:14:36;20.30;;;16.60;;
15295;SDS011;7749;49.964;7.890;2023-04-16T14:17:04;20.80;;;17.17;;
15295;SDS011;7749;49.964;7.890;2023-04-16T14:19:31;19.77;;;16.13;;
15295;SDS011;7749;49.964;7.890;2023-04-16T14:21:59;23.50;;;19.77;;
15295;SDS011;7749;49.964;7.890;2023-04-16T14:24:29;20.87;;;16.60;;
15295;SDS011;7749;49.964;7.890;2023-04-16T14:26:57;20.00;;;16.33;;
15295;SDS011;7749;49.964;7.890;2023-04-16T14:29:24;19.23;;;16.20;;
15295;SDS011;7749;49.964;7.890;2023-04-16T14:31:52;19.27;;;15.20;;
15295;SDS011;7749;49.964;7.890;2023-04-16T14:34:20;17.50;;;15.50;;
15295;SDS011;7749;49.964;7.890;2023-04-16T14:36:47;17.97;;;16.07;;
15295;SDS011;7749;49.964;7.890;2023-04-16T14:39:17;16.23;;;14.60;;
15295;SDS011;7749;49.964;7.890;2023-04-16T14:41:45;17.50;;;15.70;;
15295;SDS011;7749;49.964;7.890;2023-04-16T14:44:13;16.63;;;14.93;;
15295;SDS011;7749;49.964;7.890;2023-04-16T14:46:40;15.57;;;14.02;;
15295;SDS011;7749;49.964;7.890;2023-04-16T14:49:09;15.60;;;13.80;;
15295;SDS011;7749;49.964;7.890;2023-04-16T14:51:38;14.93;;;13.35;;
15295;SDS011;7749;49.964;7.890;2023-04-16T14:54:06;14.68;;;13.18;;
15295;SDS011;7749;49.964;7.890;2023-04-16T14:56:34;15.18;;;13.68;;
15295;SDS011;7749;49.964;7.890;2023-04-16T14:59:02;15.55;;;13.90;;
15295;SDS011;7749;49.964;7.890;2023-04-16T15:01:30;15.55;;;13.95;;
15295;SDS011;7749;49.964;7.890;2023-04-16T15:03:58;14.73;;;13.13;;
15295;SDS011;7749;49.964;7.890;2023-04-16T15:06:28;16.73;;;15.02;;